Time;durP1;ratioP1;P1;durP2;ratioP2;P2;SDS_P1;SDS_P2;PMS_P1;PMS_P2;Temp;Humidity;BMP_temperature;BMP_pressure;BME280_temperature;BME280_humidity;BME280_pressure;Samples;Min_cycle;Max_cycle;Signal;HPM_P1;HPM_P2
2022/09/10 00:04:10;;;;;;;34.13;17.20;;;;;;;11.92;100.00;100704.81;10379486;28;20033;-85
2022/09/10 00:09:11;;;;;;;29.17;18.55;;;;;;;13.03;100.00;100840.88;10387480;28;20055;-85
2022/09/10 00:14:17;;;;;;;33.20;20.85;;;;;;;11.94;100.00;100671.47;10353715;28;20101;-85
2022/09/10 00:19:18;;;;;;;32.50;19.92;;;;;;;11.62;100.00;100639.28;10399949;28;20113;-84
2022/09/10 00:24:21;;;;;;;34.42;21.90;;;;;;;12.57;100.00;100812.25;10365015;28;20393;-84
2022/09/10 00:29:21;;;;;;;35.85;22.35;;;;;;;12.73;100.00;100838.81;10404806;28;20470;-84
2022/09/10 00:34:22;;;;;;;37.40;22.33;;;;;;;12.11;100.00;100765.91;10368083;28;20049;-85
2022/09/10 00:39:23;;;;;;;37.63;23.35;;;;;;;12.93;100.00;100865.72;10377320;28;20045;-85
2022/09/10 00:44:36;;;;;;;40.05;24.20;;;;;;;12.77;100.00;100848.25;10416798;28;20037;-86
2022/09/10 00:49:40;;;;;;;39.22;25.02;;;;;;;13.24;100.00;100899.81;10398848;28;20029;-85
2022/09/10 00:54:41;;;;;;;44.85;25.35;;;;;;;11.96;100.00;100703.19;10387362;28;20037;-85
2022/09/10 00:59:44;;;;;;;42.05;25.83;;;;;;;12.20;100.00;100714.63;10387356;28;20038;-86
2022/09/10 01:04:45;;;;;;;46.05;26.20;;;;;;;13.02;100.00;100858.59;10419682;28;20501;-85
2022/09/10 01:09:45;;;;;;;42.22;26.38;;;;;;;12.94;100.00;100828.72;10402318;28;20018;-85
2022/09/10 01:15:04;;;;;;;43.13;26.45;;;;;;;13.87;100.00;100938.47;10402961;28;20339;-85
2022/09/10 01:20:10;;;;;;;47.20;26.65;;;;;;;13.84;100.00;100930.69;10396356;28;20022;-87
2022/09/10 01:25:10;;;;;;;46.38;25.77;;;;;;;13.91;100.00;100922.09;10393455;28;20037;-86
2022/09/10 01:30:14;;;;;;;42.83;26.25;;;;;;;12.67;100.00;100757.91;10391176;28;20025;-86
2022/09/10 01:35:15;;;;;;;45.42;26.48;;;;;;;13.10;100.00;100804.69;10417704;28;20120;-85
2022/09/10 01:40:16;;;;;;;44.17;27.30;;;;;;;13.18;100.00;100812.44;10391826;28;20186;-86
2022/09/10 01:45:17;;;;;;;47.08;27.05;;;;;;;12.27;100.00;100684.03;10361719;28;20022;-85
2022/09/10 01:50:30;;;;;;;49.08;27.23;;;;;;;12.14;100.00;100685.34;10358907;28;20029;-86
2022/09/10 01:55:43;;;;;;;43.50;28.50;;;;;;;12.74;100.00;100754.88;10384296;28;20041;-86
2022/09/10 02:01:28;;;;;;;49.42;28.33;;;;;;;14.06;100.00;100926.84;10416867;28;20033;-86
2022/09/10 02:06:29;;;;;;;47.92;28.85;;;;;;;12.85;100.00;100751.03;10383853;28;20034;-86
2022/09/10 02:11:30;;;;;;;48.97;28.42;;;;;;;13.23;100.00;100851.19;10399944;28;20109;-85
2022/09/10 02:16:34;;;;;;;49.28;29.15;;;;;;;13.49;100.00;100835.47;10397543;28;20624;-86
2022/09/10 02:21:34;;;;;;;51.33;30.77;;;;;;;13.24;100.00;100810.53;10374702;28;20148;-85
2022/09/10 02:26:37;;;;;;;55.85;30.80;;;;;;;13.42;100.00;100857.06;10383648;28;25433;-85
2022/09/10 02:31:37;;;;;;;52.58;30.30;;;;;;;13.59;100.00;100878.09;10399174;28;20025;-85
2022/09/10 02:36:39;;;;;;;54.63;31.23;;;;;;;13.37;100.00;100843.19;10381694;28;20037;-85
2022/09/10 02:41:40;;;;;;;51.22;30.60;;;;;;;12.74;100.00;100743.00;10384055;28;20085;-85
2022/09/10 02:46:40;;;;;;;55.03;30.88;;;;;;;13.63;100.00;100881.97;10390146;28;20381;-84
2022/09/10 02:51:43;;;;;;;55.63;30.17;;;;;;;13.82;100.00;100883.09;10366664;28;20022;-85
2022/09/10 02:56:44;;;;;;;51.47;31.52;;;;;;;13.62;100.00;100844.34;10399915;28;20467;-85
2022/09/10 03:01:44;;;;;;;53.50;32.17;;;;;;;13.70;100.00;100874.22;10367234;28;20032;-85
2022/09/10 03:06:48;;;;;;;53.17;32.05;;;;;;;12.59;100.00;100639.66;10382083;28;20033;-86
2022/09/10 03:11:50;;;;;;;52.53;30.65;;;;;;;12.81;100.00;100725.03;10398489;28;20026;-85
2022/09/10 03:16:51;;;;;;;50.03;29.92;;;;;;;13.82;100.00;100877.56;10383645;28;20072;-85
2022/09/10 03:21:51;;;;;;;52.92;31.30;;;;;;;13.35;100.00;100798.41;10365707;28;20647;-86
2022/09/10 03:26:52;;;;;;;47.72;30.63;;;;;;;12.83;100.00;100695.22;10383210;28;20099;-85
2022/09/10 03:31:53;;;;;;;51.00;30.27;;;;;;;12.86;100.00;100732.53;10399085;28;20101;-86
2022/09/10 03:36:54;;;;;;;55.05;32.55;;;;;;;12.75;100.00;100704.03;10400289;28;20504;-85
2022/09/10 03:41:54;;;;;;;53.95;30.02;;;;;;;13.66;100.00;100859.28;10384506;28;20032;-85
2022/09/10 03:46:55;;;;;;;53.53;29.38;;;;;;;13.25;100.00;100779.00;10387409;28;20089;-86
2022/09/10 03:51:55;;;;;;;50.83;29.70;;;;;;;13.76;100.00;100867.59;10406558;28;20108;-85
2022/09/10 03:56:56;;;;;;;51.92;30.42;;;;;;;14.09;100.00;100904.13;10383822;28;20485;-85
2022/09/10 04:01:56;;;;;;;49.72;30.13;;;;;;;13.06;100.00;100740.88;10391209;28;20060;-86
2022/09/10 04:06:57;;;;;;;49.25;29.98;;;;;;;13.69;100.00;100851.28;10425960;28;20060;-85
2022/09/10 04:11:58;;;;;;;51.88;29.85;;;;;;;13.24;100.00;100793.94;10407090;28;20052;-86
2022/09/10 04:16:58;;;;;;;55.28;31.17;;;;;;;12.61;100.00;100658.72;10407449;28;20036;-85
2022/09/10 04:21:59;;;;;;;47.08;29.40;;;;;;;13.61;100.00;100849.06;10391582;28;20267;-85
2022/09/10 04:27:00;;;;;;;52.83;30.13;;;;;;;13.17;100.00;100761.03;10391057;28;20025;-86
2022/09/10 04:32:02;;;;;;;50.53;29.63;;;;;;;13.88;100.00;100881.16;10373851;28;20029;-86
2022/09/10 04:37:02;;;;;;;53.50;29.95;;;;;;;13.59;100.00;100836.59;10405839;28;20057;-86
2022/09/10 04:42:03;;;;;;;54.10;30.58;;;;;;;12.50;100.00;100664.19;10406461;28;20038;-86
2022/09/10 04:47:05;;;;;;;51.03;29.25;;;;;;;13.70;100.00;100858.47;10404260;28;20030;-86
2022/09/10 04:52:05;;;;;;;51.13;29.73;;;;;;;13.68;100.00;100870.91;10404700;28;20052;-85
2022/09/10 04:57:06;;;;;;;51.70;29.75;;;;;;;13.89;100.00;100925.19;10388413;28;20079;-85
2022/09/10 05:02:08;;;;;;;47.22;30.00;;;;;;;13.65;100.00;100866.75;10388237;28;20076;-85
2022/09/10 05:07:08;;;;;;;53.00;29.27;;;;;;;13.72;100.00;100877.53;10404371;28;20045;-85
2022/09/10 05:12:09;;;;;;;54.85;30.30;;;;;;;12.62;100.00;100694.34;10387169;28;20090;-85
2022/09/10 05:17:10;;;;;;;47.35;29.20;;;;;;;13.70;100.00;100885.28;10402780;28;20393;-85
2022/09/10 05:22:10;;;;;;;50.03;29.35;;;;;;;13.71;100.00;100856.53;10405004;28;20100;-86
2022/09/10 05:27:11;;;;;;;48.00;27.70;;;;;;;13.85;100.00;100877.03;10386895;28;20120;-86
2022/09/10 05:32:12;;;;;;;48.42;28.48;;;;;;;14.70;100.00;100998.31;10381881;28;20026;-86
2022/09/10 05:37:15;;;;;;;49.80;27.70;;;;;;;13.51;100.00;100822.19;10349886;28;20052;-85
2022/09/10 05:42:16;;;;;;;49.03;28.38;;;;;;;12.96;100.00;100721.50;10385112;28;20030;-86
2022/09/10 05:47:16;;;;;;;50.67;26.88;;;;;;;13.44;100.00;100815.31;10384661;28;20033;-84
2022/09/10 05:52:17;;;;;;;51.83;28.27;;;;;;;14.26;100.00;100924.09;10399789;28;20053;-86
2022/09/10 05:57:18;;;;;;;49.33;27.25;;;;;;;13.74;100.00;100833.84;10381063;28;20399;-86
2022/09/10 06:02:19;;;;;;;44.60;27.27;;;;;;;13.90;100.00;100849.34;10397845;28;20451;-86
2022/09/10 06:07:19;;;;;;;44.28;26.95;;;;;;;13.80;100.00;100848.50;10397488;28;20029;-86
2022/09/10 06:12:20;;;;;;;53.85;27.90;;;;;;;13.49;100.00;100774.63;10382336;28;20470;-85
2022/09/10 06:17:20;;;;;;;44.63;25.60;;;;;;;13.48;100.00;100784.06;10397826;28;20490;-86
2022/09/10 06:22:21;;;;;;;45.83;25.65;;;;;;;13.90;100.00;100863.16;10381351;28;20041;-86
2022/09/10 06:27:25;;;;;;;45.05;25.23;;;;;;;14.35;100.00;100931.81;10380587;28;20132;-86
2022/09/10 06:32:25;;;;;;;42.13;26.17;;;;;;;14.50;100.00;100953.97;10378684;28;20083;-86
2022/09/10 06:37:26;;;;;;;42.10;23.65;;;;;;;14.41;100.00;100939.84;10379832;28;20095;-85
2022/09/10 06:42:27;;;;;;;43.45;24.92;;;;;;;14.26;100.00;100935.16;10339041;28;20528;-86
2022/09/10 06:47:27;;;;;;;37.92;23.63;;;;;;;13.75;100.00;100832.75;10372465;28;20018;-86
2022/09/10 06:52:28;;;;;;;34.38;23.67;;;;;;;13.53;100.00;100781.28;10373358;28;20428;-86
2022/09/10 06:57:28;;;;;;;43.33;24.27;;;;;;;14.11;100.00;100879.78;10413013;28;20038;-85
2022/09/10 07:02:29;;;;;;;34.15;22.10;;;;;;;14.70;100.00;100973.38;10363038;28;20091;-86
2022/09/10 07:07:30;;;;;;;35.60;23.33;;;;;;;14.23;100.00;100919.09;10378691;28;20030;-86
2022/09/10 07:12:31;;;;;;;42.38;23.20;;;;;;;14.20;100.00;100872.59;10360231;28;20046;-86
2022/09/10 07:17:34;;;;;;;34.78;22.38;;;;;;;14.03;100.00;100839.63;10362497;28;20100;-87
2022/09/10 07:22:36;;;;;;;41.63;22.98;;;;;;;15.23;100.00;101011.75;10359557;28;20029;-85
2022/09/10 07:27:37;;;;;;;31.67;21.33;;;;;;;14.20;100.00;100799.75;10373955;28;20497;-87
2022/09/10 07:32:39;;;;;;;31.05;20.38;;;;;;;14.75;100.00;100860.84;10379901;28;20032;-87
2022/09/10 07:38:12;;;;;;;29.80;20.13;;;;;;;14.37;100.00;100793.91;10336279;28;20029;-87
2022/09/10 07:43:26;;;;;;;30.58;19.73;;;;;;;14.99;100.00;100908.97;10278813;28;20092;-87
2022/09/10 07:55:10;;;;;;;29.83;20.35;;;;;;;14.95;100.00;100907.88;10233097;28;20049;-88
2022/09/10 08:00:25;;;;;;;26.23;18.80;;;;;;;14.42;100.00;100829.88;10258166;28;20048;-87
2022/09/10 08:05:38;;;;;;;;;;;;;;;;;;;;;
2022/09/10 08:10:52;;;;;;;25.83;18.95;;;;;;;15.03;100.00;100892.63;10309097;28;20174;-88
2022/09/10 08:15:53;;;;;;;29.25;20.20;;;;;;;15.13;100.00;100911.94;10377858;28;20041;-88
2022/09/10 08:20:53;;;;;;;25.25;18.73;;;;;;;15.20;100.00;100944.94;10374598;28;20034;-87
2022/09/10 08:25:54;;;;;;;27.55;19.85;;;;;;;14.54;100.00;100855.34;10363642;28;20443;-88
2022/09/10 08:30:59;;;;;;;29.08;19.13;;;;;;;14.71;100.00;100878.00;10377720;28;20030;-88
2022/09/10 08:36:00;;;;;;;31.17;19.15;;;;;;;15.63;100.00;101009.13;10376703;28;20462;-88
2022/09/10 08:41:30;;;;;;;29.10;17.95;;;;;;;15.54;100.00;100973.66;10361475;28;20037;-87
2022/09/10 08:46:47;;;;;;;30.55;18.08;;;;;;;15.07;100.00;100869.56;10375068;28;20044;-87
2022/09/10 08:51:51;;;;;;;26.00;16.85;;;;;;;15.23;100.00;100866.72;10401124;28;20121;-89
2022/09/10 08:56:54;;;;;;;24.60;15.75;;;;;;;16.74;100.00;101094.78;10386078;28;20068;-88
2022/09/10 09:01:59;;;;;;;31.02;17.02;;;;;;;16.64;100.00;101070.72;10393328;28;20355;-88
2022/09/10 09:07:01;;;;;;;21.58;15.27;;;;;;;17.23;100.00;101159.78;10370622;28;20033;-88
2022/09/10 09:12:11;;;;;;;25.70;15.80;;;;;;;17.21;100.00;101143.38;10365827;28;20120;-88
2022/09/10 09:17:46;;;;;;;22.77;15.35;;;;;;;17.22;100.00;101144.19;10381913;28;20107;-89
2022/09/10 09:22:54;;;;;;;20.70;14.65;;;;;;;16.40;100.00;101048.38;10386479;28;20030;-89
2022/09/10 09:27:55;;;;;;;29.52;16.52;;;;;;;16.40;100.00;101028.09;10351500;28;20033;-89
2022/09/10 09:33:00;;;;;;;22.67;14.57;;;;;;;15.91;100.00;100947.34;10366088;28;20499;-89
2022/09/10 09:38:10;;;;;;;19.90;13.23;;;;;;;16.23;100.00;100972.94;10383119;28;20033;-88
2022/09/10 09:43:33;;;;;;;17.63;13.23;;;;;;;17.50;100.00;101156.44;10380920;28;20029;-88
2022/09/10 09:48:37;;;;;;;18.58;12.63;;;;;;;16.29;100.00;100963.47;10391193;28;20022;-89
2022/09/10 09:53:39;;;;;;;19.70;13.20;;;;;;;16.53;100.00;101000.44;10389985;28;20049;-90
2022/09/10 09:58:41;;;;;;;19.85;13.48;;;;;;;16.51;100.00;101013.81;10391304;28;20136;-88
2022/09/10 10:03:51;;;;;;;25.25;15.05;;;;;;;16.81;100.00;101027.78;10405272;28;20125;-89
2022/09/10 10:09:19;;;;;;;18.42;12.73;;;;;;;17.10;100.00;101061.97;10403611;28;20083;-89
2022/09/10 10:14:20;;;;;;;;;;;;;;;18.13;100.00;101170.25;10383785;28;20124;-88
2022/09/10 10:19:35;;;;;;;20.73;11.02;;;;;;;17.01;100.00;100965.53;10401233;28;19909;-89
2022/09/10 10:24:36;;;;;;;16.55;11.05;;;;;;;17.65;100.00;100992.03;10394531;28;20030;-88
2022/09/10 10:29:37;;;;;;;14.45;10.73;;;;;;;18.14;100.00;101049.28;10390742;28;20543;-87
2022/09/10 10:34:56;;;;;;;13.65;10.00;;;;;;;17.71;100.00;100964.94;10370943;28;20112;-84
2022/09/10 10:40:01;;;;;;;17.92;10.27;;;;;;;19.69;100.00;101170.31;10391035;28;20546;-84
2022/09/10 10:45:05;;;;;;;8.98;7.07;;;;;;;18.97;100.00;100965.09;10405332;28;20117;-84
2022/09/10 10:50:14;;;;;;;11.75;8.23;;;;;;;19.95;100.00;101084.88;10395477;28;20056;-83
2022/09/10 10:55:50;;;;;;;12.63;9.25;;;;;;;20.48;100.00;101158.06;10394083;28;20436;-83
2022/09/10 11:00:56;;;;;;;12.70;7.63;;;;;;;19.38;100.00;100975.44;10376871;28;20069;-82
2022/09/10 11:06:03;;;;;;;11.77;9.02;;;;;;;19.96;100.00;101019.44;10368693;28;20568;-87
2022/09/10 11:11:09;;;;;;;8.68;7.70;;;;;;;20.34;100.00;101010.75;10379309;28;20038;-87
2022/09/10 11:16:28;;;;;;;13.48;9.23;;;;;;;20.25;100.00;100986.66;10409868;28;20049;-87
2022/09/10 11:21:37;;;;;;;11.88;9.68;;;;;;;21.25;100.00;101131.03;10379769;28;20036;-88
2022/09/10 11:27:03;;;;;;;11.52;8.07;;;;;;;20.75;100.00;101032.13;10384644;28;20033;-89
2022/09/10 11:32:17;;;;;;;12.60;7.45;;;;;;;21.67;100.00;101137.22;10278929;28;20156;-89
2022/09/10 11:37:23;;;;;;;14.00;8.73;;;;;;;21.48;100.00;101135.47;10338407;28;20475;-85
2022/09/10 11:42:29;;;;;;;13.17;7.70;;;;;;;20.37;100.00;100989.69;10389382;28;20516;-88
2022/09/10 11:47:38;;;;;;;12.53;8.93;;;;;;;21.08;100.00;101079.38;10399686;28;20113;-87
2022/09/10 11:52:39;;;;;;;10.20;7.53;;;;;;;20.78;100.00;100948.69;10395736;28;20284;-86
2022/09/10 11:57:58;;;;;;;11.68;8.13;;;;;;;21.82;100.00;101133.16;10394569;28;20048;-86
2022/09/10 12:03:20;;;;;;;9.98;8.20;;;;;;;21.55;100.00;101063.00;10410624;28;20065;-86
2022/09/10 12:08:43;;;;;;;10.77;6.93;;;;;;;21.60;100.00;101041.59;10358412;28;20026;-86
2022/09/10 12:13:45;;;;;;;11.20;7.78;;;;;;;21.34;100.00;100945.09;10361924;28;20042;-86
2022/09/10 12:18:48;;;;;;;8.52;6.40;;;;;;;22.05;100.00;101028.16;10363778;28;20383;-86
2022/09/10 12:23:48;;;;;;;8.60;7.70;;;;;;;22.33;100.00;101006.25;10386306;28;21434;-87
2022/09/10 12:28:52;;;;;;;9.30;6.43;;;;;;;23.16;100.00;101125.88;10385085;28;20026;-84
2022/09/10 12:33:53;;;;;;;9.13;6.47;;;;;;;22.84;100.00;101062.66;10417693;28;20049;-85
2022/09/10 12:39:15;;;;;;;9.18;8.18;;;;;;;22.81;100.00;101153.13;10417472;28;20036;-84
2022/09/10 12:44:33;;;;;;;11.38;8.55;;;;;;;22.41;100.00;101138.41;10363288;28;20480;-80
2022/09/10 12:49:35;;;;;;;9.77;7.80;;;;;;;21.26;100.00;101015.09;10417624;28;20050;-84
2022/09/10 12:54:58;;;;;;;10.02;7.75;;;;;;;22.72;100.00;101146.72;10401045;28;20045;-83
2022/09/10 13:00:24;;;;;;;12.05;7.53;;;;;;;22.13;100.00;100985.28;10416550;28;20500;-84
2022/09/10 13:05:47;;;;;;;9.80;7.20;;;;;;;22.42;100.00;101095.19;10415867;28;20026;-85
2022/09/10 13:11:05;;;;;;;16.95;12.95;;;;;;;21.59;100.00;101011.94;10416080;28;20059;-85
2022/09/10 13:16:10;;;;;;;17.58;13.13;;;;;;;22.16;100.00;101087.56;10383187;28;20599;-88
2022/09/10 13:21:23;;;;;;;16.53;13.03;;;;;;;22.50;100.00;101150.47;10384149;28;20529;-88
2022/09/10 13:26:36;;;;;;;18.50;12.25;;;;;;;22.65;100.00;101160.38;10396981;28;20038;-87
2022/09/10 13:31:41;;;;;;;17.75;12.35;;;;;;;23.23;100.00;100996.13;10401173;28;20025;-88
2022/09/10 13:37:00;;;;;;;12.00;10.68;;;;;;;25.49;97.30;101116.53;10394336;28;20075;-88
2022/09/10 13:42:41;;;;;;;11.50;8.50;;;;;;;25.87;89.91;101121.81;10394456;28;20048;-88
2022/09/10 13:48:01;;;;;;;13.13;10.30;;;;;;;24.90;88.26;101050.03;10399562;28;20082;-87
2022/09/10 13:53:03;;;;;;;11.80;9.27;;;;;;;23.17;94.04;100936.56;10358953;28;20053;-85
2022/09/10 13:58:14;;;;;;;12.25;9.27;;;;;;;23.55;94.26;101042.44;10397518;28;20065;-87
2022/09/10 14:03:19;;;;;;;13.75;10.45;;;;;;;24.52;93.83;101046.28;10398858;28;20025;-88
2022/09/10 14:08:31;;;;;;;11.32;8.75;;;;;;;23.96;90.92;101023.22;10398605;28;20029;-88
2022/09/10 14:13:37;;;;;;;13.90;9.27;;;;;;;23.99;95.80;101149.06;10381395;28;20041;-88
2022/09/10 14:18:45;;;;;;;16.17;10.37;;;;;;;23.50;98.94;101112.03;10415226;28;20022;-88
2022/09/10 14:23:46;;;;;;;12.35;10.40;;;;;;;22.58;97.91;100885.09;10398942;28;20025;-88
2022/09/10 14:29:00;;;;;;;14.38;9.48;;;;;;;23.62;97.60;101001.72;10415147;28;20049;-87
2022/09/10 14:34:23;;;;;;;19.63;14.52;;;;;;;23.95;96.80;101151.72;10398439;28;20061;-87
2022/09/10 14:39:23;;;;;;;17.40;12.65;;;;;;;22.12;100.00;101030.50;10413126;28;20045;-86
2022/09/10 14:44:27;;;;;;;18.88;14.35;;;;;;;22.54;100.00;101127.03;10397618;28;20049;-86
2022/09/10 14:49:31;;;;;;;18.02;13.60;;;;;;;21.92;100.00;100926.25;10340425;28;20029;-84
2022/09/10 14:54:33;;;;;;;12.40;8.35;;;;;;;22.12;99.45;100963.19;10339097;28;20060;-86
2022/09/10 14:59:40;;;;;;;12.95;7.28;;;;;;;21.96;99.67;101028.16;10379003;28;20116;-86
2022/09/10 15:04:41;;;;;;;10.35;8.48;;;;;;;22.24;98.35;100999.84;10397256;28;20554;-86
2022/09/10 15:09:41;;;;;;;12.70;9.43;;;;;;;22.17;100.00;100933.00;10394908;28;20029;-86
2022/09/10 15:14:42;;;;;;;14.73;10.88;;;;;;;23.13;97.83;101039.47;10398539;28;20561;-86
2022/09/10 15:19:42;;;;;;;12.38;11.02;;;;;;;21.92;100.00;100987.09;10323254;28;20093;-86
2022/09/10 15:24:43;;;;;;;17.52;13.73;;;;;;;21.90;100.00;101177.19;10321954;28;20030;-85
2022/09/10 15:29:44;;;;;;;17.73;13.48;;;;;;;20.18;100.00;100981.50;10349695;28;20171;-87
2022/09/10 15:34:44;;;;;;;19.70;13.48;;;;;;;20.99;100.00;101128.91;10379288;28;20545;-87
2022/09/10 15:39:45;;;;;;;20.25;14.13;;;;;;;20.06;100.00;101045.53;10385570;28;20105;-86
2022/09/10 15:44:46;;;;;;;18.70;13.93;;;;;;;20.47;100.00;101146.06;10328815;28;20054;-87
2022/09/10 15:49:46;;;;;;;18.95;14.68;;;;;;;19.04;100.00;100993.44;10338430;28;20056;-86
2022/09/10 15:54:47;;;;;;;21.25;14.98;;;;;;;20.41;100.00;101252.75;10386704;28;20037;-87
2022/09/10 15:59:48;;;;;;;19.75;14.13;;;;;;;19.58;100.00;101141.75;10386255;28;20413;-87
2022/09/10 16:04:48;;;;;;;22.17;15.18;;;;;;;19.10;100.00;101097.41;10381613;28;20351;-85
2022/09/10 16:09:49;;;;;;;24.85;15.85;;;;;;;18.52;100.00;100992.66;10365013;28;20050;-87
2022/09/10 16:14:51;;;;;;;19.92;13.35;;;;;;;19.44;100.00;101172.44;10388805;28;20046;-87
2022/09/10 16:19:53;;;;;;;20.77;13.55;;;;;;;18.76;100.00;101057.50;10393046;28;20465;-86
2022/09/10 16:24:53;;;;;;;16.55;11.75;;;;;;;18.45;100.00;101036.84;10364101;28;20040;-87
2022/09/10 16:29:54;;;;;;;19.45;10.95;;;;;;;18.52;100.00;101037.28;10386101;28;20118;-88
2022/09/10 16:34:54;;;;;;;15.57;11.73;;;;;;;18.91;100.00;101133.72;10385551;28;20054;-86
2022/09/10 16:39:55;;;;;;;13.77;10.15;;;;;;;18.14;100.00;101028.97;10385221;28;20060;-86
2022/09/10 16:44:56;;;;;;;14.65;10.35;;;;;;;19.23;100.00;101246.53;10404666;28;20212;-88
2022/09/10 16:49:56;;;;;;;16.67;11.68;;;;;;;18.69;100.00;101163.06;10369965;28;20026;-88
2022/09/10 16:54:57;;;;;;;13.88;10.52;;;;;;;18.38;100.00;101150.69;10355643;28;20090;-87
2022/09/10 16:59:57;;;;;;;16.05;11.82;;;;;;;17.68;100.00;101030.41;10342651;28;20068;-87
2022/09/10 17:04:58;;;;;;;15.95;10.85;;;;;;;17.98;100.00;101094.38;10357519;28;20040;-88
2022/09/10 17:09:58;;;;;;;17.48;11.82;;;;;;;18.52;100.00;101202.63;10384564;28;20160;-86
2022/09/10 17:14:59;;;;;;;19.00;12.68;;;;;;;18.10;100.00;101097.56;10384042;28;20048;-86
2022/09/10 17:20:00;;;;;;;15.82;10.55;;;;;;;18.10;100.00;101153.28;10368899;28;20447;-87
2022/09/10 17:25:00;;;;;;;18.83;11.10;;;;;;;18.57;100.00;101234.34;10391364;28;20032;-87
2022/09/10 17:30:01;;;;;;;13.13;10.40;;;;;;;18.04;100.00;101230.53;10393959;28;20037;-87
2022/09/10 17:35:01;;;;;;;17.30;11.95;;;;;;;17.02;100.00;101073.72;10377795;28;20034;-87
2022/09/10 17:40:03;;;;;;;15.18;11.20;;;;;;;17.73;100.00;101238.34;10362580;28;20057;-86
2022/09/10 17:45:06;;;;;;;17.77;12.27;;;;;;;16.96;100.00;101179.75;10326893;28;20041;-87
2022/09/10 17:50:07;;;;;;;16.40;11.52;;;;;;;16.83;100.00;101175.69;10325243;28;20045;-88
2022/09/10 17:55:08;;;;;;;15.10;12.10;;;;;;;15.69;100.00;101074.59;10315642;28;20042;-88
2022/09/10 18:00:09;;;;;;;17.52;12.00;;;;;;;16.57;100.00;101223.06;10365987;28;20477;-89
2022/09/10 18:05:10;;;;;;;19.75;13.18;;;;;;;16.52;100.00;101270.34;10341088;28;20021;-88
2022/09/10 18:10:11;;;;;;;20.40;13.57;;;;;;;16.39;100.00;101301.50;10351999;28;20110;-88
2022/09/10 18:15:11;;;;;;;23.52;13.55;;;;;;;16.23;100.00;101297.97;10377339;28;20061;-87
2022/09/10 18:20:12;;;;;;;28.13;15.02;;;;;;;15.10;100.00;101165.69;10370424;28;20521;-87
2022/09/10 18:25:12;;;;;;;25.30;14.98;;;;;;;15.01;100.00;101156.28;10351604;28;20032;-87
2022/09/10 18:30:13;;;;;;;17.85;13.00;;;;;;;14.93;100.00;101162.38;10295083;28;20057;-89
2022/09/10 18:35:16;;;;;;;20.70;14.90;;;;;;;15.71;100.00;101324.97;10316417;28;20040;-90
2022/09/10 18:40:24;;;;;;;20.23;14.38;;;;;;;15.07;100.00;101241.13;10310464;28;20124;-89
2022/09/10 18:45:44;;;;;;;22.48;14.63;;;;;;;14.88;100.00;101207.56;10295052;28;20561;-89
2022/09/10 18:50:47;;;;;;;24.88;15.63;;;;;;;14.99;100.00;101193.72;10263754;28;20052;-91
2022/09/10 18:56:35;;;;;;;29.00;18.15;;;;;;;16.20;100.00;101392.97;10242250;28;20107;-90
2022/09/10 19:02:03;;;;;;;25.23;18.40;;;;;;;15.37;100.00;101271.94;10271489;28;20394;-87
2022/09/10 19:07:05;;;;;;;33.03;20.55;;;;;;;15.23;100.00;101277.19;10262157;28;20033;-87
2022/09/10 19:12:06;;;;;;;29.75;19.25;;;;;;;15.45;100.00;101294.41;10301167;28;20132;-86
2022/09/10 19:17:16;;;;;;;35.67;22.45;;;;;;;15.08;100.00;101242.78;10328892;28;20140;-85
2022/09/10 19:22:17;;;;;;;35.03;22.30;;;;;;;14.78;100.00;101271.31;10332833;28;20037;-86
2022/09/10 19:27:18;;;;;;;39.58;23.35;;;;;;;14.38;100.00;101227.63;10340931;28;20106;-88
2022/09/10 19:32:21;;;;;;;32.53;22.77;;;;;;;14.71;100.00;101281.78;10342562;28;20039;-90
2022/09/10 19:37:23;;;;;;;35.28;23.50;;;;;;;15.08;100.00;101394.47;10272441;28;20039;-87
2022/09/10 19:42:26;;;;;;;40.45;26.55;;;;;;;14.48;100.00;101294.97;10266467;28;20095;-90
2022/09/10 19:47:36;;;;;;;37.13;24.00;;;;;;;15.11;100.00;101425.28;10329106;28;20063;-89
2022/09/10 19:52:39;;;;;;;38.30;23.73;;;;;;;13.57;100.00;101190.13;10300194;28;20120;-90
2022/09/10 19:57:40;;;;;;;43.30;25.92;;;;;;;14.61;100.00;101392.59;10287552;28;20052;-89
2022/09/10 20:02:41;;;;;;;45.25;27.10;;;;;;;14.47;100.00;101394.97;10269169;28;20111;-86
2022/09/10 20:07:42;;;;;;;45.47;25.85;;;;;;;13.26;100.00;101209.22;10285158;28;20088;-90
2022/09/10 20:12:52;;;;;;;41.58;26.35;;;;;;;14.35;100.00;101455.31;10285793;28;20041;-86
2022/09/10 20:18:02;;;;;;;51.67;29.48;;;;;;;14.20;100.00;101462.38;10290560;28;20124;-86
2022/09/10 20:23:16;;;;;;;;;;;;;;;;;;;;;
2022/09/10 20:28:35;;;;;;;54.08;31.25;;;;;;;12.70;100.00;101235.22;10288506;28;20497;-87
2022/09/10 20:33:41;;;;;;;58.22;31.05;;;;;;;13.24;100.00;101313.72;10314481;28;20069;-90
2022/09/10 20:38:42;;;;;;;57.85;31.95;;;;;;;12.93;100.00;101332.75;10333840;28;20367;-89
2022/09/10 20:43:43;;;;;;;58.42;33.38;;;;;;;12.85;100.00;101316.63;10340446;28;20034;-89
2022/09/10 20:48:44;;;;;;;59.60;32.60;;;;;;;13.26;100.00;101394.47;10319660;28;20444;-86
2022/09/10 20:53:50;;;;;;;60.80;34.17;;;;;;;14.15;100.00;101517.72;10311188;28;20072;-90
2022/09/10 20:59:01;;;;;;;;;;;;;;;;;;;;;
2022/09/10 21:04:05;;;;;;;60.22;33.88;;;;;;;13.21;100.00;101380.59;10318738;28;20038;-90
2022/09/10 21:09:08;;;;;;;63.78;32.65;;;;;;;12.14;100.00;101242.84;10255325;28;20022;-90
2022/09/10 21:14:12;;;;;;;65.82;34.38;;;;;;;13.11;100.00;101389.63;10296949;28;20045;-90
2022/09/10 21:19:14;;;;;;;63.95;32.28;;;;;;;13.83;100.00;101526.81;10265333;28;20032;-90
2022/09/10 21:24:16;;;;;;;58.10;31.20;;;;;;;13.44;100.00;101503.97;10286789;28;20037;-87
2022/09/10 21:29:28;;;;;;;61.42;31.98;;;;;;;13.48;100.00;101505.94;10321777;28;20097;-90
2022/09/10 21:34:36;;;;;;;62.65;31.73;;;;;;;12.73;100.00;101430.03;10358326;28;20045;-91
2022/09/10 21:39:50;;;;;;;;;;;;;;;;;;;;;
2022/09/10 21:44:51;;;;;;;60.00;30.77;;;;;;;12.49;100.00;101412.84;10274461;28;20038;-87
2022/09/10 21:50:12;;;;;;;61.70;32.00;;;;;;;12.09;100.00;101326.41;10286558;28;20038;-86
2022/09/10 21:55:12;;;;;;;56.78;30.35;;;;;;;12.85;100.00;101476.88;10292941;28;20066;-86
2022/09/10 22:00:16;;;;;;;69.70;34.03;;;;;;;13.02;100.00;101505.34;10286189;28;20045;-86
2022/09/10 22:05:22;;;;;;;71.78;35.53;;;;;;;11.60;100.00;101312.38;10233963;28;20497;-87
2022/09/10 22:10:25;;;;;;;74.80;35.38;;;;;;;13.54;100.00;101617.50;10255941;28;20204;-88
2022/09/10 22:15:38;;;;;;;72.07;35.38;;;;;;;12.22;100.00;101397.00;10297139;28;20072;-90
2022/09/10 22:20:41;;;;;;;68.57;35.22;;;;;;;12.21;100.00;101411.88;10351469;28;20116;-89
2022/09/10 22:25:42;;;;;;;72.15;35.47;;;;;;;11.40;100.00;101318.38;10272761;28;22295;-86
2022/09/10 22:30:57;;;;;;;65.78;34.53;;;;;;;12.97;100.00;101568.00;10260278;28;20036;-90
2022/09/10 22:36:13;;;;;;;66.22;32.55;;;;;;;12.79;100.00;101566.31;10295937;28;20040;-90
2022/09/10 22:41:13;;;;;;;74.10;36.47;;;;;;;11.99;100.00;101422.84;10330249;28;20037;-90
2022/09/10 22:46:14;;;;;;;77.93;35.85;;;;;;;11.19;100.00;101310.84;10320660;28;20045;-86
2022/09/10 22:51:21;;;;;;;71.22;34.95;;;;;;;12.28;100.00;101514.69;10333964;28;20111;-86
2022/09/10 22:56:21;;;;;;;;;;;;;;;13.16;100.00;101638.47;10315937;28;20513;-86
2022/09/10 23:01:29;;;;;;;78.63;36.80;;;;;;;10.75;100.00;101249.94;10328272;28;20061;-86